« そらミロ流ポイント 奄美大島 2016/6/30 thu | トップページ | お疲れ 成田国際空港 2016/6/30 thu »

2016/07/22

いいだっか 奄美空港 2016/6/30 thu

古仁屋から名瀬で、チョと山道探検の後、空港至近まで戻ってきました。

RJKA 300200Z 21013KT 9999 FEW020 SCT/// 31/25 Q1014

20160630_rjka_30cal

上空は真っ青。南に向かう機影がクッキリ

20160630_rjka_31amami

見上げれば、我国旗

20160630_rjka_32ja8794

JAC3831 RJKA-RJKI JA8704 SF34

20160630_rjka_33ja8642

JAC3642 RJKN-RJKA JA8642 SF34

20160630_rjka_34amami

レンタカーを返却して、奄美空港に到着。

RJKA 300300Z 21011KT 9999 FEW020 SCT/// 31/26 Q1014

20160630_rjka_35ja8642

竹田城塗装のサーブ

20160630_rjka_36ja847c

20160630_rjka_37ja847c

JAC3727 RJFK-RJKA JA847C DHC8-402Q

20160630_rjka_38ja345j

20160630_rjka_39ja345j

JAL2464 RJKA-RJOO JA324J B737-846

20160630_rjka_40ja8704

20160630_rjka_41ja8704

JAC3832 RJKI-RJKA JA8704 SF34

20160630_rjka_42ja847c

お手振りを受けて、折り返し

20160630_rjka_43ja8642

こちらは、エンジンスタート

20160630_rjka_44ja847c

JAC3680 RJKA-RJFF JA847C DHC8-402Q

20160630_rjka_45ja02va

小生の乗機がやってきました。

20160630_rjka_46ja8642

喜界島にも行きたいねぇ

20160630_rjka_47ja02va

VNL823 RJAA-RJKA JA02VA A320-216

20160630_rjka_48ja8642

JAC3833 RJKA-RJKI JA8642 SF34

RJKA 300400Z 23010KT 9999 FEW020 BKN/// 32/26 Q1014

20160630_rjka_49vnl824

ほどなくして、搭乗しました。向こうにはJACとRACの-8が・・

20160630_rjka_50vnl824

さてークイズです。係員がヨイショしているこの機械は、なんでしょう?

20160630_rjka_51vnl824

お手振りを受けて出発です。

VNL824 RJKA-RJAA JA02VA A320-216

20160630_rjka_52vnl824

改めて笠利VOR/DME(AME)

20160630_rjka_53vnl824

RW21にラインアップ

20160630_rjka_54vnl824

クロスで空港が一望に

20160630_rjka_55vnl824

さよなら奄美。また来るネェ。成田まで、遠いナァ

|

« そらミロ流ポイント 奄美大島 2016/6/30 thu | トップページ | お疲れ 成田国際空港 2016/6/30 thu »

奄美空港」カテゴリの記事

コメント

コメントを書く



(ウェブ上には掲載しません)


コメントは記事投稿者が公開するまで表示されません。



トラックバック


この記事へのトラックバック一覧です: いいだっか 奄美空港 2016/6/30 thu:

« そらミロ流ポイント 奄美大島 2016/6/30 thu | トップページ | お疲れ 成田国際空港 2016/6/30 thu »